sensor_id;sensor_type;location;lat;lon;timestamp;P1;durP1;ratioP1;P2;durP2;ratioP2
21675;SDS011;10999;51.332;9.458;2024-03-08T00:00:34;18.58;;;7.93;;
21675;SDS011;10999;51.332;9.458;2024-03-08T00:03:01;18.95;;;8.70;;
21675;SDS011;10999;51.332;9.458;2024-03-08T00:05:29;18.75;;;7.85;;
21675;SDS011;10999;51.332;9.458;2024-03-08T00:07:56;17.38;;;7.97;;
21675;SDS011;10999;51.332;9.458;2024-03-08T00:10:23;23.67;;;7.80;;
21675;SDS011;10999;51.332;9.458;2024-03-08T00:12:53;18.52;;;8.20;;
21675;SDS011;10999;51.332;9.458;2024-03-08T00:15:20;21.75;;;8.43;;
21675;SDS011;10999;51.332;9.458;2024-03-08T00:17:49;17.33;;;7.45;;
21675;SDS011;10999;51.332;9.458;2024-03-08T00:20:16;16.02;;;7.30;;
21675;SDS011;10999;51.332;9.458;2024-03-08T00:22:46;17.92;;;7.85;;
21675;SDS011;10999;51.332;9.458;2024-03-08T00:25:13;17.23;;;7.32;;
21675;SDS011;10999;51.332;9.458;2024-03-08T00:27:41;18.13;;;6.65;;
21675;SDS011;10999;51.332;9.458;2024-03-08T00:30:08;17.88;;;8.07;;
21675;SDS011;10999;51.332;9.458;2024-03-08T00:32:35;21.05;;;8.68;;
21675;SDS011;10999;51.332;9.458;2024-03-08T00:35:03;19.50;;;7.15;;
21675;SDS011;10999;51.332;9.458;2024-03-08T00:37:33;19.33;;;8.18;;
21675;SDS011;10999;51.332;9.458;2024-03-08T00:40:03;19.70;;;7.53;;
21675;SDS011;10999;51.332;9.458;2024-03-08T00:42:31;20.33;;;8.30;;
21675;SDS011;10999;51.332;9.458;2024-03-08T00:44:57;24.10;;;9.43;;
21675;SDS011;10999;51.332;9.458;2024-03-08T00:47:25;16.23;;;7.32;;
21675;SDS011;10999;51.332;9.458;2024-03-08T00:49:52;17.88;;;7.93;;
21675;SDS011;10999;51.332;9.458;2024-03-08T00:52:19;18.17;;;8.98;;
21675;SDS011;10999;51.332;9.458;2024-03-08T00:54:46;21.17;;;9.60;;
21675;SDS011;10999;51.332;9.458;2024-03-08T00:57:13;22.17;;;8.55;;
21675;SDS011;10999;51.332;9.458;2024-03-08T00:59:39;26.02;;;8.77;;
21675;SDS011;10999;51.332;9.458;2024-03-08T01:02:06;22.20;;;8.90;;
21675;SDS011;10999;51.332;9.458;2024-03-08T01:04:35;16.25;;;7.82;;
21675;SDS011;10999;51.332;9.458;2024-03-08T01:07:02;20.65;;;9.10;;
21675;SDS011;10999;51.332;9.458;2024-03-08T01:09:29;20.17;;;9.00;;
21675;SDS011;10999;51.332;9.458;2024-03-08T01:11:56;21.00;;;7.28;;
21675;SDS011;10999;51.332;9.458;2024-03-08T01:14:23;22.52;;;9.02;;
21675;SDS011;10999;51.332;9.458;2024-03-08T01:16:52;20.80;;;8.50;;
21675;SDS011;10999;51.332;9.458;2024-03-08T01:19:19;23.77;;;10.80;;
21675;SDS011;10999;51.332;9.458;2024-03-08T01:21:45;22.27;;;8.90;;
21675;SDS011;10999;51.332;9.458;2024-03-08T01:24:12;20.38;;;9.48;;
21675;SDS011;10999;51.332;9.458;2024-03-08T01:26:39;18.95;;;7.85;;
21675;SDS011;10999;51.332;9.458;2024-03-08T01:29:06;23.95;;;8.88;;
21675;SDS011;10999;51.332;9.458;2024-03-08T01:31:34;21.27;;;9.30;;
21675;SDS011;10999;51.332;9.458;2024-03-08T01:34:02;21.50;;;7.60;;
21675;SDS011;10999;51.332;9.458;2024-03-08T01:36:29;22.50;;;9.65;;
21675;SDS011;10999;51.332;9.458;2024-03-08T01:38:56;17.70;;;9.90;;
21675;SDS011;10999;51.332;9.458;2024-03-08T01:41:24;17.27;;;7.30;;
21675;SDS011;10999;51.332;9.458;2024-03-08T01:43:50;18.45;;;8.02;;
21675;SDS011;10999;51.332;9.458;2024-03-08T01:46:19;14.70;;;7.07;;
21675;SDS011;10999;51.332;9.458;2024-03-08T01:48:48;16.30;;;8.50;;
21675;SDS011;10999;51.332;9.458;2024-03-08T01:51:17;16.08;;;8.60;;
21675;SDS011;10999;51.332;9.458;2024-03-08T01:53:45;22.42;;;8.38;;
21675;SDS011;10999;51.332;9.458;2024-03-08T01:56:13;21.15;;;8.77;;
21675;SDS011;10999;51.332;9.458;2024-03-08T01:58:40;17.95;;;8.32;;
21675;SDS011;10999;51.332;9.458;2024-03-08T02:01:11;24.02;;;8.77;;
21675;SDS011;10999;51.332;9.458;2024-03-08T02:03:41;22.33;;;8.98;;
21675;SDS011;10999;51.332;9.458;2024-03-08T02:06:13;21.65;;;8.48;;
21675;SDS011;10999;51.332;9.458;2024-03-08T02:08:42;19.30;;;8.50;;
21675;SDS011;10999;51.332;9.458;2024-03-08T02:11:11;19.65;;;8.48;;
21675;SDS011;10999;51.332;9.458;2024-03-08T02:13:39;22.50;;;10.15;;
21675;SDS011;10999;51.332;9.458;2024-03-08T02:16:06;24.73;;;8.27;;
21675;SDS011;10999;51.332;9.458;2024-03-08T02:18:34;17.90;;;8.45;;
21675;SDS011;10999;51.332;9.458;2024-03-08T02:21:02;18.08;;;8.40;;
21675;SDS011;10999;51.332;9.458;2024-03-08T02:23:31;21.13;;;8.02;;
21675;SDS011;10999;51.332;9.458;2024-03-08T02:25:59;19.50;;;9.40;;
21675;SDS011;10999;51.332;9.458;2024-03-08T02:28:25;18.65;;;8.02;;
21675;SDS011;10999;51.332;9.458;2024-03-08T02:30:52;20.60;;;8.13;;
21675;SDS011;10999;51.332;9.458;2024-03-08T02:33:24;19.42;;;8.23;;
21675;SDS011;10999;51.332;9.458;2024-03-08T02:35:52;15.13;;;6.30;;
21675;SDS011;10999;51.332;9.458;2024-03-08T02:38:20;20.85;;;7.40;;
21675;SDS011;10999;51.332;9.458;2024-03-08T02:40:49;16.10;;;7.00;;
21675;SDS011;10999;51.332;9.458;2024-03-08T02:43:18;22.52;;;9.00;;
21675;SDS011;10999;51.332;9.458;2024-03-08T02:45:46;20.25;;;9.20;;
21675;SDS011;10999;51.332;9.458;2024-03-08T02:48:14;18.02;;;7.88;;
21675;SDS011;10999;51.332;9.458;2024-03-08T02:50:43;16.08;;;7.47;;
21675;SDS011;10999;51.332;9.458;2024-03-08T02:53:11;21.52;;;8.25;;
21675;SDS011;10999;51.332;9.458;2024-03-08T02:55:39;19.10;;;8.13;;
21675;SDS011;10999;51.332;9.458;2024-03-08T02:58:07;16.77;;;8.70;;
21675;SDS011;10999;51.332;9.458;2024-03-08T03:00:37;21.45;;;8.50;;
21675;SDS011;10999;51.332;9.458;2024-03-08T03:03:07;23.95;;;9.70;;
21675;SDS011;10999;51.332;9.458;2024-03-08T03:05:34;17.48;;;7.65;;
21675;SDS011;10999;51.332;9.458;2024-03-08T03:08:01;17.73;;;6.80;;
21675;SDS011;10999;51.332;9.458;2024-03-08T03:10:30;19.33;;;7.68;;
21675;SDS011;10999;51.332;9.458;2024-03-08T03:12:57;18.48;;;7.60;;
21675;SDS011;10999;51.332;9.458;2024-03-08T03:15:24;19.42;;;8.05;;
21675;SDS011;10999;51.332;9.458;2024-03-08T03:17:53;15.15;;;7.95;;
21675;SDS011;10999;51.332;9.458;2024-03-08T03:20:21;18.98;;;7.95;;
21675;SDS011;10999;51.332;9.458;2024-03-08T03:22:59;17.95;;;8.18;;
21675;SDS011;10999;51.332;9.458;2024-03-08T03:25:29;20.20;;;7.55;;
21675;SDS011;10999;51.332;9.458;2024-03-08T03:28:01;20.90;;;8.52;;
21675;SDS011;10999;51.332;9.458;2024-03-08T03:30:28;17.38;;;6.28;;
21675;SDS011;10999;51.332;9.458;2024-03-08T03:33:05;15.45;;;6.88;;
21675;SDS011;10999;51.332;9.458;2024-03-08T03:35:34;19.38;;;8.00;;
21675;SDS011;10999;51.332;9.458;2024-03-08T03:38:02;19.17;;;6.95;;
21675;SDS011;10999;51.332;9.458;2024-03-08T03:40:34;18.70;;;7.65;;
21675;SDS011;10999;51.332;9.458;2024-03-08T03:43:02;18.90;;;7.40;;
21675;SDS011;10999;51.332;9.458;2024-03-08T03:45:29;19.17;;;7.57;;
21675;SDS011;10999;51.332;9.458;2024-03-08T03:48:00;19.20;;;8.18;;
21675;SDS011;10999;51.332;9.458;2024-03-08T03:50:28;20.98;;;8.15;;
21675;SDS011;10999;51.332;9.458;2024-03-08T03:52:55;18.48;;;7.47;;
21675;SDS011;10999;51.332;9.458;2024-03-08T03:55:22;14.40;;;7.10;;
21675;SDS011;10999;51.332;9.458;2024-03-08T03:57:49;19.95;;;8.07;;
21675;SDS011;10999;51.332;9.458;2024-03-08T04:00:15;16.25;;;5.78;;
21675;SDS011;10999;51.332;9.458;2024-03-08T04:02:43;18.25;;;7.43;;
21675;SDS011;10999;51.332;9.458;2024-03-08T04:05:10;23.08;;;7.80;;
21675;SDS011;10999;51.332;9.458;2024-03-08T04:07:37;18.60;;;8.57;;
21675;SDS011;10999;51.332;9.458;2024-03-08T04:10:05;19.55;;;8.05;;
21675;SDS011;10999;51.332;9.458;2024-03-08T04:12:33;18.23;;;7.35;;
21675;SDS011;10999;51.332;9.458;2024-03-08T04:15:00;16.50;;;7.45;;
21675;SDS011;10999;51.332;9.458;2024-03-08T04:17:28;19.67;;;7.05;;
21675;SDS011;10999;51.332;9.458;2024-03-08T04:19:55;14.07;;;6.32;;
21675;SDS011;10999;51.332;9.458;2024-03-08T04:22:21;21.38;;;7.70;;
21675;SDS011;10999;51.332;9.458;2024-03-08T04:24:48;18.25;;;6.85;;
21675;SDS011;10999;51.332;9.458;2024-03-08T04:27:15;19.73;;;8.75;;
21675;SDS011;10999;51.332;9.458;2024-03-08T04:29:42;23.65;;;9.20;;
21675;SDS011;10999;51.332;9.458;2024-03-08T04:32:09;16.17;;;7.13;;
21675;SDS011;10999;51.332;9.458;2024-03-08T04:34:36;17.65;;;7.75;;
21675;SDS011;10999;51.332;9.458;2024-03-08T04:37:03;17.88;;;7.50;;
21675;SDS011;10999;51.332;9.458;2024-03-08T04:39:32;20.00;;;8.55;;
21675;SDS011;10999;51.332;9.458;2024-03-08T04:42:01;23.80;;;8.77;;
21675;SDS011;10999;51.332;9.458;2024-03-08T04:44:36;20.35;;;8.93;;
21675;SDS011;10999;51.332;9.458;2024-03-08T04:47:06;21.35;;;7.82;;
21675;SDS011;10999;51.332;9.458;2024-03-08T04:49:33;17.48;;;8.23;;
21675;SDS011;10999;51.332;9.458;2024-03-08T04:52:03;26.40;;;8.90;;
21675;SDS011;10999;51.332;9.458;2024-03-08T04:54:30;20.83;;;8.57;;
21675;SDS011;10999;51.332;9.458;2024-03-08T04:56:57;17.05;;;7.32;;
21675;SDS011;10999;51.332;9.458;2024-03-08T04:59:26;17.05;;;8.15;;
21675;SDS011;10999;51.332;9.458;2024-03-08T05:01:54;17.40;;;7.63;;
21675;SDS011;10999;51.332;9.458;2024-03-08T05:04:21;27.05;;;9.75;;
21675;SDS011;10999;51.332;9.458;2024-03-08T05:06:48;20.83;;;9.55;;
21675;SDS011;10999;51.332;9.458;2024-03-08T05:09:15;15.10;;;7.10;;
21675;SDS011;10999;51.332;9.458;2024-03-08T05:11:43;19.15;;;7.68;;
21675;SDS011;10999;51.332;9.458;2024-03-08T05:14:11;19.65;;;8.20;;
21675;SDS011;10999;51.332;9.458;2024-03-08T05:16:43;24.75;;;9.27;;
21675;SDS011;10999;51.332;9.458;2024-03-08T05:19:15;17.92;;;8.90;;
21675;SDS011;10999;51.332;9.458;2024-03-08T05:21:45;19.52;;;8.40;;
21675;SDS011;10999;51.332;9.458;2024-03-08T05:24:12;24.05;;;9.20;;
21675;SDS011;10999;51.332;9.458;2024-03-08T05:26:40;22.15;;;9.23;;
21675;SDS011;10999;51.332;9.458;2024-03-08T05:29:08;19.50;;;7.07;;
21675;SDS011;10999;51.332;9.458;2024-03-08T05:31:48;17.23;;;8.55;;
21675;SDS011;10999;51.332;9.458;2024-03-08T05:34:16;18.10;;;8.18;;
21675;SDS011;10999;51.332;9.458;2024-03-08T05:36:43;16.98;;;7.45;;
21675;SDS011;10999;51.332;9.458;2024-03-08T05:39:11;17.92;;;7.40;;
21675;SDS011;10999;51.332;9.458;2024-03-08T05:41:39;18.65;;;7.88;;
21675;SDS011;10999;51.332;9.458;2024-03-08T05:44:06;22.08;;;8.65;;
21675;SDS011;10999;51.332;9.458;2024-03-08T05:46:34;20.17;;;9.10;;
21675;SDS011;10999;51.332;9.458;2024-03-08T05:49:05;19.83;;;9.05;;
21675;SDS011;10999;51.332;9.458;2024-03-08T05:51:33;22.38;;;8.43;;
21675;SDS011;10999;51.332;9.458;2024-03-08T05:54:04;19.10;;;7.60;;
21675;SDS011;10999;51.332;9.458;2024-03-08T05:56:32;20.65;;;8.68;;
21675;SDS011;10999;51.332;9.458;2024-03-08T05:59:00;22.75;;;8.48;;
21675;SDS011;10999;51.332;9.458;2024-03-08T06:01:27;20.35;;;8.85;;
21675;SDS011;10999;51.332;9.458;2024-03-08T06:03:56;19.50;;;8.93;;
21675;SDS011;10999;51.332;9.458;2024-03-08T06:06:23;16.65;;;8.02;;
21675;SDS011;10999;51.332;9.458;2024-03-08T06:08:51;16.83;;;8.00;;
21675;SDS011;10999;51.332;9.458;2024-03-08T06:11:19;20.73;;;7.95;;
21675;SDS011;10999;51.332;9.458;2024-03-08T06:13:46;21.63;;;8.85;;
21675;SDS011;10999;51.332;9.458;2024-03-08T06:16:14;24.05;;;8.80;;
21675;SDS011;10999;51.332;9.458;2024-03-08T06:18:41;20.90;;;7.55;;
21675;SDS011;10999;51.332;9.458;2024-03-08T06:21:08;23.42;;;7.70;;
21675;SDS011;10999;51.332;9.458;2024-03-08T06:23:37;16.27;;;7.88;;
21675;SDS011;10999;51.332;9.458;2024-03-08T06:26:05;19.42;;;7.45;;
21675;SDS011;10999;51.332;9.458;2024-03-08T06:28:32;16.42;;;6.95;;
21675;SDS011;10999;51.332;9.458;2024-03-08T06:30:59;24.27;;;9.23;;
21675;SDS011;10999;51.332;9.458;2024-03-08T06:33:26;18.50;;;8.93;;
21675;SDS011;10999;51.332;9.458;2024-03-08T06:35:54;16.20;;;7.85;;
21675;SDS011;10999;51.332;9.458;2024-03-08T06:38:24;21.35;;;8.85;;
21675;SDS011;10999;51.332;9.458;2024-03-08T06:40:52;23.90;;;8.43;;
21675;SDS011;10999;51.332;9.458;2024-03-08T06:43:19;23.60;;;8.88;;
21675;SDS011;10999;51.332;9.458;2024-03-08T06:45:46;23.55;;;10.02;;
21675;SDS011;10999;51.332;9.458;2024-03-08T06:48:19;16.48;;;7.85;;
21675;SDS011;10999;51.332;9.458;2024-03-08T06:50:46;16.92;;;7.97;;
21675;SDS011;10999;51.332;9.458;2024-03-08T06:53:14;22.02;;;8.40;;
21675;SDS011;10999;51.332;9.458;2024-03-08T06:55:44;25.92;;;9.35;;
21675;SDS011;10999;51.332;9.458;2024-03-08T06:58:11;24.83;;;10.40;;
21675;SDS011;10999;51.332;9.458;2024-03-08T07:00:38;25.52;;;9.70;;
21675;SDS011;10999;51.332;9.458;2024-03-08T07:03:08;20.33;;;9.13;;
21675;SDS011;10999;51.332;9.458;2024-03-08T07:05:38;21.95;;;9.55;;
21675;SDS011;10999;51.332;9.458;2024-03-08T07:08:07;30.48;;;9.52;;
21675;SDS011;10999;51.332;9.458;2024-03-08T07:10:34;20.20;;;9.18;;
21675;SDS011;10999;51.332;9.458;2024-03-08T07:13:01;20.52;;;10.10;;
21675;SDS011;10999;51.332;9.458;2024-03-08T07:15:28;25.50;;;8.93;;
21675;SDS011;10999;51.332;9.458;2024-03-08T07:17:55;27.73;;;10.55;;
21675;SDS011;10999;51.332;9.458;2024-03-08T07:20:22;26.33;;;10.77;;
21675;SDS011;10999;51.332;9.458;2024-03-08T07:22:49;30.08;;;10.73;;
21675;SDS011;10999;51.332;9.458;2024-03-08T07:25:19;27.90;;;9.98;;
21675;SDS011;10999;51.332;9.458;2024-03-08T07:27:48;23.73;;;9.65;;
21675;SDS011;10999;51.332;9.458;2024-03-08T07:30:19;20.85;;;9.98;;
21675;SDS011;10999;51.332;9.458;2024-03-08T07:33:19;26.92;;;10.45;;
21675;SDS011;10999;51.332;9.458;2024-03-08T07:35:46;27.95;;;12.05;;
21675;SDS011;10999;51.332;9.458;2024-03-08T07:38:13;22.45;;;10.73;;
21675;SDS011;10999;51.332;9.458;2024-03-08T07:40:41;32.90;;;11.70;;
21675;SDS011;10999;51.332;9.458;2024-03-08T07:43:11;23.83;;;11.02;;
21675;SDS011;10999;51.332;9.458;2024-03-08T07:45:38;31.77;;;11.02;;
21675;SDS011;10999;51.332;9.458;2024-03-08T07:48:05;21.13;;;9.73;;
21675;SDS011;10999;51.332;9.458;2024-03-08T07:50:37;22.83;;;10.35;;
21675;SDS011;10999;51.332;9.458;2024-03-08T07:53:06;24.55;;;11.07;;
21675;SDS011;10999;51.332;9.458;2024-03-08T07:55:33;29.10;;;11.80;;
21675;SDS011;10999;51.332;9.458;2024-03-08T07:58:01;26.15;;;10.30;;
21675;SDS011;10999;51.332;9.458;2024-03-08T08:00:29;25.02;;;10.32;;
21675;SDS011;10999;51.332;9.458;2024-03-08T08:02:57;29.98;;;11.82;;
21675;SDS011;10999;51.332;9.458;2024-03-08T08:05:25;21.80;;;10.43;;
21675;SDS011;10999;51.332;9.458;2024-03-08T08:07:52;22.67;;;10.18;;
21675;SDS011;10999;51.332;9.458;2024-03-08T08:10:20;23.63;;;10.00;;
21675;SDS011;10999;51.332;9.458;2024-03-08T08:12:52;21.83;;;9.48;;
21675;SDS011;10999;51.332;9.458;2024-03-08T08:15:19;23.48;;;10.77;;
21675;SDS011;10999;51.332;9.458;2024-03-08T08:17:46;23.50;;;9.70;;
21675;SDS011;10999;51.332;9.458;2024-03-08T08:20:18;21.38;;;9.52;;
21675;SDS011;10999;51.332;9.458;2024-03-08T08:22:45;24.23;;;10.10;;
21675;SDS011;10999;51.332;9.458;2024-03-08T08:25:12;23.45;;;11.00;;
21675;SDS011;10999;51.332;9.458;2024-03-08T08:27:39;20.38;;;10.57;;
21675;SDS011;10999;51.332;9.458;2024-03-08T08:30:06;21.40;;;9.85;;
21675;SDS011;10999;51.332;9.458;2024-03-08T08:32:35;20.77;;;9.57;;
21675;SDS011;10999;51.332;9.458;2024-03-08T08:35:05;24.00;;;10.15;;
21675;SDS011;10999;51.332;9.458;2024-03-08T08:37:33;25.55;;;9.93;;
21675;SDS011;10999;51.332;9.458;2024-03-08T08:40:03;22.70;;;10.75;;
21675;SDS011;10999;51.332;9.458;2024-03-08T08:42:31;23.13;;;10.98;;
21675;SDS011;10999;51.332;9.458;2024-03-08T08:45:05;21.95;;;8.63;;
21675;SDS011;10999;51.332;9.458;2024-03-08T08:47:43;21.98;;;9.30;;
21675;SDS011;10999;51.332;9.458;2024-03-08T08:50:13;22.20;;;10.32;;
21675;SDS011;10999;51.332;9.458;2024-03-08T08:52:40;21.77;;;8.63;;
21675;SDS011;10999;51.332;9.458;2024-03-08T08:55:08;20.83;;;9.45;;
21675;SDS011;10999;51.332;9.458;2024-03-08T08:57:35;19.67;;;9.52;;
21675;SDS011;10999;51.332;9.458;2024-03-08T09:00:02;20.63;;;9.93;;
21675;SDS011;10999;51.332;9.458;2024-03-08T09:02:34;22.30;;;10.13;;
21675;SDS011;10999;51.332;9.458;2024-03-08T09:05:01;25.75;;;11.70;;
21675;SDS011;10999;51.332;9.458;2024-03-08T09:07:29;21.33;;;9.68;;
21675;SDS011;10999;51.332;9.458;2024-03-08T09:09:56;24.58;;;10.95;;
21675;SDS011;10999;51.332;9.458;2024-03-08T09:12:24;20.75;;;9.57;;
21675;SDS011;10999;51.332;9.458;2024-03-08T09:14:52;23.17;;;10.10;;
21675;SDS011;10999;51.332;9.458;2024-03-08T09:17:18;20.00;;;9.52;;
21675;SDS011;10999;51.332;9.458;2024-03-08T09:19:48;22.77;;;10.27;;
21675;SDS011;10999;51.332;9.458;2024-03-08T09:22:15;20.88;;;9.20;;
21675;SDS011;10999;51.332;9.458;2024-03-08T09:24:42;18.40;;;8.95;;
21675;SDS011;10999;51.332;9.458;2024-03-08T09:27:12;22.42;;;10.65;;
21675;SDS011;10999;51.332;9.458;2024-03-08T09:29:40;26.88;;;9.90;;
21675;SDS011;10999;51.332;9.458;2024-03-08T09:32:06;21.92;;;9.73;;
21675;SDS011;10999;51.332;9.458;2024-03-08T09:34:33;22.92;;;9.70;;
21675;SDS011;10999;51.332;9.458;2024-03-08T09:37:03;19.65;;;9.35;;
21675;SDS011;10999;51.332;9.458;2024-03-08T09:39:30;21.15;;;9.55;;
21675;SDS011;10999;51.332;9.458;2024-03-08T09:42:00;17.25;;;8.45;;
21675;SDS011;10999;51.332;9.458;2024-03-08T09:44:31;20.60;;;9.00;;
21675;SDS011;10999;51.332;9.458;2024-03-08T09:46:58;20.10;;;8.63;;
21675;SDS011;10999;51.332;9.458;2024-03-08T09:49:26;19.40;;;8.27;;
21675;SDS011;10999;51.332;9.458;2024-03-08T09:51:53;17.88;;;7.65;;
21675;SDS011;10999;51.332;9.458;2024-03-08T09:54:21;20.48;;;8.85;;
21675;SDS011;10999;51.332;9.458;2024-03-08T09:56:51;20.58;;;8.73;;
21675;SDS011;10999;51.332;9.458;2024-03-08T09:59:19;19.13;;;8.70;;
21675;SDS011;10999;51.332;9.458;2024-03-08T10:01:54;15.98;;;6.68;;
21675;SDS011;10999;51.332;9.458;2024-03-08T10:04:22;17.50;;;7.03;;
21675;SDS011;10999;51.332;9.458;2024-03-08T10:06:49;16.83;;;7.43;;
21675;SDS011;10999;51.332;9.458;2024-03-08T10:09:16;18.23;;;7.38;;
21675;SDS011;10999;51.332;9.458;2024-03-08T10:11:43;18.00;;;7.72;;
21675;SDS011;10999;51.332;9.458;2024-03-08T10:14:10;17.92;;;7.28;;
21675;SDS011;10999;51.332;9.458;2024-03-08T10:16:40;17.00;;;7.93;;
21675;SDS011;10999;51.332;9.458;2024-03-08T10:19:07;18.95;;;7.40;;
21675;SDS011;10999;51.332;9.458;2024-03-08T10:21:35;18.42;;;8.27;;
21675;SDS011;10999;51.332;9.458;2024-03-08T10:24:13;17.88;;;7.57;;
21675;SDS011;10999;51.332;9.458;2024-03-08T10:26:40;20.05;;;8.40;;
21675;SDS011;10999;51.332;9.458;2024-03-08T10:29:09;19.35;;;7.95;;
21675;SDS011;10999;51.332;9.458;2024-03-08T10:31:44;19.27;;;7.78;;
21675;SDS011;10999;51.332;9.458;2024-03-08T10:34:11;17.55;;;7.70;;
21675;SDS011;10999;51.332;9.458;2024-03-08T10:36:39;19.42;;;7.97;;
21675;SDS011;10999;51.332;9.458;2024-03-08T10:39:10;18.88;;;8.60;;
21675;SDS011;10999;51.332;9.458;2024-03-08T10:41:47;19.63;;;8.27;;
21675;SDS011;10999;51.332;9.458;2024-03-08T10:47:08;17.35;;;8.35;;
21675;SDS011;10999;51.332;9.458;2024-03-08T10:52:17;17.45;;;8.10;;
21675;SDS011;10999;51.332;9.458;2024-03-08T10:54:45;19.17;;;9.13;;
21675;SDS011;10999;51.332;9.458;2024-03-08T10:57:17;17.15;;;8.05;;
21675;SDS011;10999;51.332;9.458;2024-03-08T10:59:46;19.92;;;8.13;;
21675;SDS011;10999;51.332;9.458;2024-03-08T11:02:16;19.80;;;8.23;;
21675;SDS011;10999;51.332;9.458;2024-03-08T11:04:48;28.08;;;10.98;;
21675;SDS011;10999;51.332;9.458;2024-03-08T11:07:16;25.33;;;10.90;;
21675;SDS011;10999;51.332;9.458;2024-03-08T11:09:49;20.67;;;8.90;;
21675;SDS011;10999;51.332;9.458;2024-03-08T11:12:25;17.45;;;7.43;;
21675;SDS011;10999;51.332;9.458;2024-03-08T11:14:59;23.88;;;9.63;;
21675;SDS011;10999;51.332;9.458;2024-03-08T11:19:56;20.08;;;8.90;;
21675;SDS011;10999;51.332;9.458;2024-03-08T11:22:28;21.75;;;9.05;;
21675;SDS011;10999;51.332;9.458;2024-03-08T11:25:01;19.13;;;8.93;;
21675;SDS011;10999;51.332;9.458;2024-03-08T11:27:29;20.63;;;9.75;;
21675;SDS011;10999;51.332;9.458;2024-03-08T11:30:00;18.33;;;8.15;;
21675;SDS011;10999;51.332;9.458;2024-03-08T11:32:44;21.35;;;9.73;;
21675;SDS011;10999;51.332;9.458;2024-03-08T11:35:19;27.15;;;9.93;;
21675;SDS011;10999;51.332;9.458;2024-03-08T11:37:49;20.80;;;9.27;;
21675;SDS011;10999;51.332;9.458;2024-03-08T11:40:17;19.20;;;9.02;;
21675;SDS011;10999;51.332;9.458;2024-03-08T11:42:46;18.58;;;8.45;;
21675;SDS011;10999;51.332;9.458;2024-03-08T11:47:47;17.58;;;8.30;;
21675;SDS011;10999;51.332;9.458;2024-03-08T11:50:16;25.23;;;9.88;;
21675;SDS011;10999;51.332;9.458;2024-03-08T11:52:45;24.63;;;10.00;;
21675;SDS011;10999;51.332;9.458;2024-03-08T11:55:12;22.80;;;9.23;;
21675;SDS011;10999;51.332;9.458;2024-03-08T11:57:40;20.85;;;9.68;;
21675;SDS011;10999;51.332;9.458;2024-03-08T12:00:18;21.55;;;9.07;;
21675;SDS011;10999;51.332;9.458;2024-03-08T12:03:03;24.55;;;9.50;;
21675;SDS011;10999;51.332;9.458;2024-03-08T12:05:33;17.17;;;8.77;;
21675;SDS011;10999;51.332;9.458;2024-03-08T12:08:01;21.83;;;9.30;;
21675;SDS011;10999;51.332;9.458;2024-03-08T12:10:29;21.95;;;8.38;;
21675;SDS011;10999;51.332;9.458;2024-03-08T12:12:57;21.08;;;9.35;;
21675;SDS011;10999;51.332;9.458;2024-03-08T12:15:29;19.77;;;9.43;;
21675;SDS011;10999;51.332;9.458;2024-03-08T12:18:00;20.27;;;8.30;;
21675;SDS011;10999;51.332;9.458;2024-03-08T12:20:27;22.33;;;9.82;;
21675;SDS011;10999;51.332;9.458;2024-03-08T12:23:15;22.02;;;8.70;;
21675;SDS011;10999;51.332;9.458;2024-03-08T12:25:43;18.75;;;8.38;;
21675;SDS011;10999;51.332;9.458;2024-03-08T12:28:10;23.88;;;8.73;;
21675;SDS011;10999;51.332;9.458;2024-03-08T12:30:47;20.33;;;9.00;;
21675;SDS011;10999;51.332;9.458;2024-03-08T12:33:20;22.92;;;9.30;;
21675;SDS011;10999;51.332;9.458;2024-03-08T12:35:51;22.35;;;9.95;;
21675;SDS011;10999;51.332;9.458;2024-03-08T12:38:27;21.45;;;8.93;;
21675;SDS011;10999;51.332;9.458;2024-03-08T12:41:00;22.83;;;9.57;;
21675;SDS011;10999;51.332;9.458;2024-03-08T12:43:28;18.15;;;8.15;;
21675;SDS011;10999;51.332;9.458;2024-03-08T12:45:57;23.48;;;10.45;;
21675;SDS011;10999;51.332;9.458;2024-03-08T12:48:24;23.80;;;10.93;;
21675;SDS011;10999;51.332;9.458;2024-03-08T12:50:51;24.45;;;10.77;;
21675;SDS011;10999;51.332;9.458;2024-03-08T12:53:21;21.65;;;9.90;;
21675;SDS011;10999;51.332;9.458;2024-03-08T12:55:49;23.27;;;9.38;;
21675;SDS011;10999;51.332;9.458;2024-03-08T12:58:16;24.10;;;10.77;;
21675;SDS011;10999;51.332;9.458;2024-03-08T13:00:43;17.90;;;8.13;;
21675;SDS011;10999;51.332;9.458;2024-03-08T13:03:10;22.52;;;10.15;;
21675;SDS011;10999;51.332;9.458;2024-03-08T13:05:37;22.02;;;9.18;;
21675;SDS011;10999;51.332;9.458;2024-03-08T13:08:06;22.95;;;9.05;;
21675;SDS011;10999;51.332;9.458;2024-03-08T13:10:41;23.98;;;9.90;;
21675;SDS011;10999;51.332;9.458;2024-03-08T13:13:10;22.30;;;9.60;;
21675;SDS011;10999;51.332;9.458;2024-03-08T13:15:41;22.52;;;10.05;;
21675;SDS011;10999;51.332;9.458;2024-03-08T13:18:08;24.23;;;10.13;;
21675;SDS011;10999;51.332;9.458;2024-03-08T13:20:37;25.25;;;10.02;;
21675;SDS011;10999;51.332;9.458;2024-03-08T13:23:13;21.27;;;8.85;;
21675;SDS011;10999;51.332;9.458;2024-03-08T13:25:40;25.08;;;10.07;;
21675;SDS011;10999;51.332;9.458;2024-03-08T13:28:07;21.70;;;9.70;;
21675;SDS011;10999;51.332;9.458;2024-03-08T13:30:35;24.85;;;9.50;;
21675;SDS011;10999;51.332;9.458;2024-03-08T13:33:02;21.33;;;8.38;;
21675;SDS011;10999;51.332;9.458;2024-03-08T13:35:31;19.55;;;7.93;;
21675;SDS011;10999;51.332;9.458;2024-03-08T13:37:59;19.80;;;8.63;;
21675;SDS011;10999;51.332;9.458;2024-03-08T13:40:27;19.63;;;8.75;;
21675;SDS011;10999;51.332;9.458;2024-03-08T13:42:54;21.73;;;8.82;;
21675;SDS011;10999;51.332;9.458;2024-03-08T13:45:21;19.85;;;9.30;;
21675;SDS011;10999;51.332;9.458;2024-03-08T13:47:50;19.90;;;9.20;;
21675;SDS011;10999;51.332;9.458;2024-03-08T13:50:17;23.42;;;8.73;;
21675;SDS011;10999;51.332;9.458;2024-03-08T13:52:48;19.58;;;8.73;;
21675;SDS011;10999;51.332;9.458;2024-03-08T13:55:20;19.83;;;8.45;;
21675;SDS011;10999;51.332;9.458;2024-03-08T13:57:48;22.10;;;9.40;;
21675;SDS011;10999;51.332;9.458;2024-03-08T14:00:15;21.67;;;9.20;;
21675;SDS011;10999;51.332;9.458;2024-03-08T14:02:42;25.02;;;10.00;;
21675;SDS011;10999;51.332;9.458;2024-03-08T14:05:10;24.90;;;9.52;;
21675;SDS011;10999;51.332;9.458;2024-03-08T14:07:38;19.63;;;8.73;;
21675;SDS011;10999;51.332;9.458;2024-03-08T14:10:05;21.08;;;9.27;;
21675;SDS011;10999;51.332;9.458;2024-03-08T14:12:33;20.30;;;9.13;;
21675;SDS011;10999;51.332;9.458;2024-03-08T14:15:01;18.75;;;8.07;;
21675;SDS011;10999;51.332;9.458;2024-03-08T14:17:28;19.67;;;8.43;;
21675;SDS011;10999;51.332;9.458;2024-03-08T14:19:57;23.67;;;9.77;;
21675;SDS011;10999;51.332;9.458;2024-03-08T14:22:25;20.15;;;9.15;;
21675;SDS011;10999;51.332;9.458;2024-03-08T14:24:52;22.92;;;9.75;;
21675;SDS011;10999;51.332;9.458;2024-03-08T14:27:21;21.65;;;8.98;;
21675;SDS011;10999;51.332;9.458;2024-03-08T14:29:49;21.40;;;9.23;;
21675;SDS011;10999;51.332;9.458;2024-03-08T14:32:15;21.80;;;9.13;;
21675;SDS011;10999;51.332;9.458;2024-03-08T14:34:45;21.85;;;8.75;;
21675;SDS011;10999;51.332;9.458;2024-03-08T14:37:13;23.63;;;9.20;;
21675;SDS011;10999;51.332;9.458;2024-03-08T14:39:40;26.23;;;9.82;;
21675;SDS011;10999;51.332;9.458;2024-03-08T14:42:07;22.17;;;10.40;;
21675;SDS011;10999;51.332;9.458;2024-03-08T14:44:39;21.13;;;9.10;;
21675;SDS011;10999;51.332;9.458;2024-03-08T14:47:06;23.48;;;9.48;;
21675;SDS011;10999;51.332;9.458;2024-03-08T14:49:33;25.40;;;10.63;;
21675;SDS011;10999;51.332;9.458;2024-03-08T14:52:02;20.50;;;8.98;;